地図

経路データ

SID SEASON NUMBER BASIN SUBBASIN NAME ISO_TIME NATURE LAT LON WMO_WIND WMO_PRES WMO_AGENCY TRACK_TYPE DIST2LAND LANDFALL IFLAG USA_AGENCY USA_ATCF_ID USA_LAT USA_LON USA_RECORD USA_STATUS USA_WIND USA_PRES USA_SSHS USA_R34_NE USA_R34_SE USA_R34_SW USA_R34_NW USA_R50_NE USA_R50_SE USA_R50_SW USA_R50_NW USA_R64_NE USA_R64_SE USA_R64_SW USA_R64_NW USA_POCI USA_ROCI USA_RMW USA_EYE TOKYO_LAT TOKYO_LON TOKYO_GRADE TOKYO_WIND TOKYO_PRES TOKYO_R50_DIR TOKYO_R50_LONG TOKYO_R50_SHORT TOKYO_R30_DIR TOKYO_R30_LONG TOKYO_R30_SHORT TOKYO_LAND CMA_LAT CMA_LON CMA_CAT CMA_WIND CMA_PRES HKO_LAT HKO_LON HKO_CAT HKO_WIND HKO_PRES NEWDELHI_LAT NEWDELHI_LON NEWDELHI_GRADE NEWDELHI_WIND NEWDELHI_PRES NEWDELHI_CI NEWDELHI_DP NEWDELHI_POCI REUNION_LAT REUNION_LON REUNION_TYPE REUNION_WIND REUNION_PRES REUNION_TNUM REUNION_CI REUNION_RMW REUNION_R34_NE REUNION_R34_SE REUNION_R34_SW REUNION_R34_NW REUNION_R50_NE REUNION_R50_SE REUNION_R50_SW REUNION_R50_NW REUNION_R64_NE REUNION_R64_SE REUNION_R64_SW REUNION_R64_NW BOM_LAT BOM_LON BOM_TYPE BOM_WIND BOM_PRES BOM_TNUM BOM_CI BOM_RMW BOM_R34_NE BOM_R34_SE BOM_R34_SW BOM_R34_NW BOM_R50_NE BOM_R50_SE BOM_R50_SW BOM_R50_NW BOM_R64_NE BOM_R64_SE BOM_R64_SW BOM_R64_NW BOM_ROCI BOM_POCI BOM_EYE BOM_POS_METHOD BOM_PRES_METHOD NADI_LAT NADI_LON NADI_CAT NADI_WIND NADI_PRES WELLINGTON_LAT WELLINGTON_LON WELLINGTON_WIND WELLINGTON_PRES DS824_LAT DS824_LON DS824_STAGE DS824_WIND DS824_PRES TD9636_LAT TD9636_LON TD9636_STAGE TD9636_WIND TD9636_PRES TD9635_LAT TD9635_LON TD9635_WIND TD9635_PRES TD9635_ROCI NEUMANN_LAT NEUMANN_LON NEUMANN_CLASS NEUMANN_WIND NEUMANN_PRES MLC_LAT MLC_LON MLC_CLASS MLC_WIND MLC_PRES USA_GUST BOM_GUST BOM_GUST_PER REUNION_GUST REUNION_GUST_PER USA_SEAHGT USA_SEARAD_NE USA_SEARAD_SE USA_SEARAD_SW USA_SEARAD_NW STORM_SPEED STORM_DIR
1930028S17150 1930 7 SP EA NOT_NAMED 1930-01-27 23:00:00 NR -17.0000 150.150 bom main 390 385 ______O___O___ -1 -16.9000 150.200 -17.1000 150.100 7 5 272
1930028S17150 1930 7 SP EA NOT_NAMED 1930-01-28 00:00:00 TS -16.9975 150.070 main 385 369 ______P__OP___ -1 -16.8944 150.088 -16.9000 150.100 TC -17.1494 150.038 7 5 261
1930028S17150 1930 7 SP EA NOT_NAMED 1930-01-28 03:00:00 TS -17.0517 149.802 main 360 346 ______P__PP___ -1 -16.8825 149.756 -16.9414 149.800 TC -17.2944 149.849 7 5 257
1930028S17150 1930 7 SP EA NOT_NAMED 1930-01-28 06:00:00 TS -17.1137 149.539 main 339 317 ______P__PP___ -1 -16.8896 149.443 -16.9940 149.514 TC -17.4276 149.654 7 5 255
1930028S17150 1930 7 SP EA NOT_NAMED 1930-01-28 09:00:00 TS -17.1801 149.288 main 317 304 ______P__PP___ -1 -16.9304 149.163 -17.0694 149.253 TC -17.5404 149.447 7 5 252
1930028S17150 1930 7 SP EA NOT_NAMED 1930-01-28 11:00:00 TS -17.2405 149.134 main 304 295 ______P__PO___ -1 -16.9835 149.001 -17.1381 149.101 TC -17.6000 149.300 7 5 247
1930028S17150 1930 7 SP EA NOT_NAMED 1930-01-28 12:00:00 TS -17.2744 149.062 main 295 274 ______P__PP___ -1 -17.0195 148.930 -17.1793 149.032 TC -17.6245 149.224 7 4 238
1930028S17150 1930 7 SP EA NOT_NAMED 1930-01-28 15:00:00 TS -17.3994 148.871 main 274 243 ______P__PP___ -1 -17.1719 148.757 -17.3356 148.863 TC -17.6907 148.994 7 4 226
1930028S17150 1930 7 SP EA NOT_NAMED 1930-01-28 18:00:00 TS -17.5775 148.736 main 243 225 ______P__PP___ -1 -17.4024 148.659 -17.5500 148.759 TC -17.7802 148.790 7 5 203
1930028S17150 1930 7 SP EA NOT_NAMED 1930-01-28 21:00:00 TS -17.8322 148.676 main 225 208 ______P__PP___ -1 -17.7256 148.650 -17.8342 148.733 TC -17.9368 148.646 7 6 184
1930028S17150 1930 7 SP EA NOT_NAMED 1930-01-28 23:00:00 TS -18.0561 148.689 bom main 199 191 ______O__PO___ -1 -18.0000 148.700 -18.0683 148.767 TC -18.1000 148.600 7 7 173
1930028S17150 1930 7 SP EA NOT_NAMED 1930-01-29 00:00:00 TS -18.1919 148.710 main 191 165 ______P__OP___ -1 -18.1557 148.744 -18.2000 148.800 TC -18.2199 148.585 7 9 167
1930028S17150 1930 7 SP EA NOT_NAMED 1930-01-29 03:00:00 TS -18.6559 148.834 main 154 128 ______P__PP___ -1 -18.6640 148.935 -18.6436 148.964 TC -18.6601 148.601 7 10 163
1930028S17150 1930 7 SP EA NOT_NAMED 1930-01-29 05:00:00 TS -18.9827 148.959 bom main 133 124 ______O__PP___ -1 -19.0000 149.100 -18.9514 149.116 TC -18.9968 148.663 7 10 159
1930028S17150 1930 7 SP EA NOT_NAMED 1930-01-29 06:00:00 TS -19.1405 149.031 main 124 94 ______P__OP___ -1 -19.1506 149.183 -19.1000 149.200 TC -19.1707 148.709 7 10 153
1930028S17150 1930 7 SP EA NOT_NAMED 1930-01-29 09:00:00 TS -19.5826 149.281 main 94 83 ______P__PP___ -1 -19.5658 149.466 -19.4961 149.467 TC -19.6861 148.911 7 10 149
1930028S17150 1930 7 SP EA NOT_NAMED 1930-01-29 11:00:00 TS -19.8498 149.483 main 92 85 ______P__PO___ -1 -19.8136 149.679 -19.7359 149.671 TC -20.0000 149.100 7 10 143
1930028S17150 1930 7 SP EA NOT_NAMED 1930-01-29 12:00:00 TS -19.9706 149.594 main 89 89 ______P__PP___ -1 -19.9294 149.790 -19.8489 149.779 TC -20.1336 149.213 7 10 135
1930028S17150 1930 7 SP EA NOT_NAMED 1930-01-29 15:00:00 TS -20.3027 149.964 main 116 114 ______P__PP___ -1 -20.2463 150.141 -20.1621 150.122 TC -20.4998 149.629 7 10 131
1930028S17150 1930 7 SP EA NOT_NAMED 1930-01-29 18:00:00 TS -20.5906 150.366 main 136 136 ______P__PP___ -1 -20.5214 150.505 -20.4391 150.483 TC -20.8113 150.110 7 9 125
1930028S17150 1930 7 SP EA NOT_NAMED 1930-01-29 21:00:00 TS -20.8360 150.771 main 169 159 ______P__PP___ -1 -20.7594 150.867 -20.6839 150.847 TC -21.0646 150.600 7 9 122
1930028S17150 1930 7 SP EA NOT_NAMED 1930-01-29 23:00:00 TS -20.9770 151.028 992 bom main 159 159 ______O__PO___ -1 -20.9000 151.100 992 4 -20.8309 151.084 TC -21.2000 150.900 7 8 121
1930028S17150 1930 7 SP EA NOT_NAMED 1930-01-30 00:00:00 TS -21.0424 151.139 main 161 152 ______P__OP___ -1 -20.9686 151.196 -20.9000 151.200 TC 45 992 -21.2587 151.022 7 7 120
1930028S17150 1930 7 SP EA NOT_NAMED 1930-01-30 03:00:00 TS -21.2088 151.452 main 157 154 ______P__PP___ -1 -21.1445 151.472 -21.0914 151.531 TC -21.3904 151.354 7 6 118
1930028S17150 1930 7 SP EA NOT_NAMED 1930-01-30 06:00:00 TS -21.3409 151.741 main 160 159 ______P__PP___ -1 -21.2839 151.734 -21.2612 151.839 TC -21.4776 151.649 7 6 115
1930028S17150 1930 7 SP EA NOT_NAMED 1930-01-30 09:00:00 TS -21.4528 152.014 main 166 166 ______P__PP___ -1 -21.3976 151.990 -21.4126 152.128 TC -21.5483 151.922 7 5 114
1930028S17150 1930 7 SP EA NOT_NAMED 1930-01-30 11:00:00 TS -21.5231 152.191 main 182 182 ______P__PO___ -1 -21.4644 152.161 -21.5048 152.312 TC -21.6000 152.100 7 5 113
1930028S17150 1930 7 SP EA NOT_NAMED 1930-01-30 12:00:00 TS -21.5590 152.279 main 184 184 ______P__PP___ -1 -21.4962 152.246 -21.5487 152.402 TC -21.6320 152.188 7 5 114
1930028S17150 1930 7 SP EA NOT_NAMED 1930-01-30 15:00:00 TS -21.6646 152.538 main 196 196 ______P__PP___ -1 -21.5904 152.510 -21.6724 152.662 TC -21.7310 152.443 7 5 114
1930028S17150 1930 7 SP EA NOT_NAMED 1930-01-30 18:00:00 TS -21.7740 152.801 main 220 220 ______P__PP___ -1 -21.6907 152.787 -21.7869 152.913 TC -21.8444 152.702 7 5 115
1930028S17150 1930 7 SP EA NOT_NAMED 1930-01-30 21:00:00 TS -21.8960 153.069 main 246 246 ______P__PP___ -1 -21.8076 153.086 -21.8951 153.158 TC -21.9850 152.986 7 6 117
1930028S17150 1930 7 SP EA NOT_NAMED 1930-01-30 23:00:00 TS -21.9930 153.264 bom main 263 263 ______O__PO___ -1 -21.9000 153.300 -21.9652 153.320 TC -22.1000 153.200 7 6 119
1930028S17150 1930 7 SP EA NOT_NAMED 1930-01-31 00:00:00 TS -22.0536 153.371 main 271 271 ______P__OP___ -1 -21.9516 153.413 -22.0000 153.400 TC -22.1691 153.321 7 8 121
1930028S17150 1930 7 SP EA NOT_NAMED 1930-01-31 03:00:00 NR -22.2662 153.745 main 279 269 ______P___P___ -1 -22.1274 153.771 TC -22.4049 153.719 7 9 122
1930028S17150 1930 7 SP EA NOT_NAMED 1930-01-31 06:00:00 NR -22.4988 154.155 main 272 260 ______P___P___ -1 -22.3313 154.158 TC -22.6664 154.151 7 9 122
1930028S17150 1930 7 SP EA NOT_NAMED 1930-01-31 09:00:00 NR -22.7452 154.585 main 269 259 ______P___P___ -1 -22.5588 154.569 TC -22.9317 154.601 7 9 122
1930028S17150 1930 7 SP EA NOT_NAMED 1930-01-31 11:00:00 NR -22.9106 154.878 main 267 265 ______P___O___ -1 -22.7213 154.855 TC -23.1000 154.900 7 10 121
1930028S17150 1930 7 SP EA NOT_NAMED 1930-01-31 12:00:00 NR -22.9923 155.025 main 265 263 ______P___P___ -1 -22.8053 155.001 TC -23.1794 155.048 7 9 121
1930028S17150 1930 7 SP EA NOT_NAMED 1930-01-31 15:00:00 NR -23.2327 155.466 main 286 279 ______P___P___ -1 -23.0664 155.451 TC -23.3991 155.481 7 9 120
1930028S17150 1930 7 SP EA NOT_NAMED 1930-01-31 18:00:00 NR -23.4673 155.909 main 301 301 ______P___P___ -1 -23.3376 155.913 TC -23.5971 155.905 7 9 120
1930028S17150 1930 7 SP EA NOT_NAMED 1930-01-31 21:00:00 NR -23.6978 156.353 main 336 336 ______P___P___ -1 -23.6144 156.383 TC -23.7812 156.323 7 9 119
1930028S17150 1930 7 SP EA NOT_NAMED 1930-01-31 23:00:00 NR -23.8500 156.650 bom main 359 ______O___O___ -1 -23.8000 156.700 TC -23.9000 156.600 7 9 119

デジタル台風データ・検索

IBTrACS Databaseについて

本データベースは、米国NOAAが公開する1842年以降の世界の熱帯低気圧のベストトラックデータアーカイブInternational Best Track Archive for Climate Stewardship (IBTrACS)を、ウェブで閲覧しやすい形式に変換したものです。

最終更新日:2021-10-27